createdAt,value
2022-08-17T00:00:43.332Z,62
2022-08-17T00:01:20.135Z,62.1
2022-08-17T00:02:26.304Z,61.7
2022-08-17T00:03:20.063Z,61.9
2022-08-17T00:04:20.044Z,61.9
2022-08-17T00:05:20.040Z,62.4
2022-08-17T00:06:20.072Z,62.4
2022-08-17T00:07:20.045Z,62.6
2022-08-17T00:08:20.040Z,62.5
2022-08-17T00:09:20.043Z,62.4
2022-08-17T00:10:20.040Z,62.6
2022-08-17T00:11:20.043Z,62.8
2022-08-17T00:12:40.631Z,62.8
2022-08-17T00:13:20.043Z,62.9
2022-08-17T00:14:20.036Z,63.2
2022-08-17T00:15:20.049Z,63.1
2022-08-17T00:16:20.041Z,63.2
2022-08-17T00:17:20.050Z,63.3
2022-08-17T00:19:08.003Z,63
2022-08-17T00:19:20.048Z,62.7
2022-08-17T00:20:20.054Z,62.8
2022-08-17T00:21:23.606Z,63.2
2022-08-17T00:22:35.053Z,63.2
2022-08-17T00:23:20.059Z,63.1
2022-08-17T00:24:20.051Z,63.2
2022-08-17T00:25:20.052Z,63.6
2022-08-17T00:26:44.012Z,63.3
2022-08-17T00:27:20.058Z,63.1
2022-08-17T00:28:20.052Z,63.4
2022-08-17T00:29:20.321Z,63
2022-08-17T00:30:20.054Z,63.4
2022-08-17T00:31:20.061Z,63.5
2022-08-17T00:33:12.070Z,63.3
2022-08-17T00:33:20.053Z,63.4
2022-08-17T00:34:20.060Z,63.3
2022-08-17T00:35:20.062Z,63.3
2022-08-17T00:36:20.075Z,63.3
2022-08-17T00:37:20.064Z,63.4
2022-08-17T00:38:20.069Z,63.7
2022-08-17T00:39:20.064Z,63.7
2022-08-17T00:40:20.075Z,63.4
2022-08-17T00:41:20.062Z,63.6
2022-08-17T00:42:20.066Z,64
2022-08-17T00:43:20.067Z,63.9
2022-08-17T00:44:20.068Z,64
2022-08-17T00:45:20.071Z,64.1
2022-08-17T00:46:20.066Z,64.1
2022-08-17T00:47:20.067Z,64.4
2022-08-17T00:48:29.518Z,64.1
2022-08-17T00:49:20.083Z,63.9
2022-08-17T00:51:20.074Z,64.3
2022-08-17T00:52:20.076Z,64.1
2022-08-17T00:53:20.074Z,64.2
2022-08-17T00:54:20.083Z,64.5
2022-08-17T00:55:20.070Z,64.5
2022-08-17T00:56:20.072Z,64.5
2022-08-17T00:57:20.074Z,65
2022-08-17T00:58:20.077Z,64.8
2022-08-17T01:00:20.077Z,65.1
2022-08-17T01:01:21.867Z,65.1
2022-08-17T01:02:20.082Z,65
2022-08-17T01:03:20.076Z,65.2
2022-08-17T01:04:20.078Z,65
2022-08-17T01:05:20.081Z,64.9
2022-08-17T01:06:20.078Z,65.4
2022-08-17T01:07:20.079Z,65.6
2022-08-17T01:08:20.124Z,65.5
2022-08-17T01:09:20.079Z,65.8
2022-08-17T01:10:57.522Z,65.8
2022-08-17T01:11:20.092Z,66
2022-08-17T01:12:20.079Z,66.6
2022-08-17T01:13:20.081Z,66.7
2022-08-17T01:14:20.086Z,66.1
2022-08-17T01:15:20.086Z,66.7
2022-08-17T01:16:20.090Z,66.4
2022-08-17T01:17:20.088Z,66.5
2022-08-17T01:18:20.083Z,66.9
2022-08-17T01:19:20.091Z,67
2022-08-17T01:20:20.087Z,66.6
2022-08-17T01:21:20.088Z,66.8
2022-08-17T01:22:20.112Z,66.8
2022-08-17T01:23:21.031Z,66.9
2022-08-17T01:24:20.089Z,66.8
2022-08-17T01:25:20.090Z,67.1
2022-08-17T01:26:20.092Z,67.2
2022-08-17T01:27:20.576Z,67.3
2022-08-17T01:28:52.424Z,67.1
2022-08-17T01:29:20.093Z,67.3
2022-08-17T01:30:58.911Z,67.3
2022-08-17T01:31:20.095Z,67
2022-08-17T01:32:20.096Z,66.9
2022-08-17T01:33:20.094Z,67.9
2022-08-17T01:34:20.102Z,68
2022-08-17T01:35:20.099Z,68.1
2022-08-17T01:36:20.099Z,68.3
2022-08-17T01:37:20.102Z,67.6
2022-08-17T01:38:27.066Z,67.9
2022-08-17T01:39:20.103Z,67.9
2022-08-17T01:40:20.108Z,67.9
2022-08-17T01:42:20.102Z,67.9
2022-08-17T01:43:20.202Z,67.7
2022-08-17T01:44:20.100Z,68.2
2022-08-17T01:45:20.107Z,68
2022-08-17T01:46:20.107Z,68
2022-08-17T01:47:20.110Z,67.9
2022-08-17T01:48:20.109Z,68
2022-08-17T01:49:20.116Z,68
2022-08-17T01:50:20.108Z,68.5
2022-08-17T01:51:20.107Z,68.8
2022-08-17T01:52:20.111Z,68.6
2022-08-17T01:53:20.108Z,68.4
2022-08-17T01:54:20.122Z,68.9
2022-08-17T01:55:23.407Z,69
2022-08-17T01:56:20.113Z,68.4
2022-08-17T01:57:20.117Z,68.8
2022-08-17T01:58:20.208Z,69.2
2022-08-17T01:59:20.129Z,69.6
2022-08-17T02:00:20.127Z,69.8
2022-08-17T02:01:20.199Z,70
2022-08-17T02:02:30.312Z,69.6
2022-08-17T02:03:20.146Z,69.6
2022-08-17T02:04:20.114Z,69.4
2022-08-17T02:05:20.115Z,69.8
2022-08-17T02:06:26.989Z,70.1
2022-08-17T02:07:20.113Z,69.8
2022-08-17T02:08:20.340Z,69.9
2022-08-17T02:09:20.123Z,70.4
2022-08-17T02:10:20.512Z,70.4
2022-08-17T02:11:20.113Z,70.8
2022-08-17T02:12:37.638Z,70.5
2022-08-17T02:13:20.201Z,70.7
2022-08-17T02:14:20.118Z,70.8
2022-08-17T02:15:20.121Z,71.1
2022-08-17T02:16:20.129Z,71.4
2022-08-17T02:17:20.129Z,71.2
2022-08-17T02:18:20.119Z,71.1
2022-08-17T02:19:20.135Z,70.6
2022-08-17T02:20:36.437Z,71
2022-08-17T02:21:20.128Z,71.4
2022-08-17T02:22:20.124Z,71.7
2022-08-17T02:23:20.132Z,71.6
2022-08-17T02:24:58.462Z,71.3
2022-08-17T02:25:20.137Z,70.9
2022-08-17T02:26:26.311Z,71
2022-08-17T02:27:20.131Z,71.6
2022-08-17T02:28:20.214Z,71.7
2022-08-17T02:29:20.130Z,71.7
2022-08-17T02:31:01.640Z,71.9
2022-08-17T02:31:20.145Z,71.8
2022-08-17T02:33:20.139Z,71.8
2022-08-17T02:34:20.137Z,72
2022-08-17T02:35:20.135Z,72.2
2022-08-17T02:37:20.147Z,73
2022-08-17T02:38:20.167Z,73.2
2022-08-17T02:39:20.168Z,73.3
2022-08-17T02:40:36.578Z,72.9
2022-08-17T02:41:20.165Z,72.6
2022-08-17T02:42:20.142Z,72.4
2022-08-17T02:43:20.234Z,72.7
2022-08-17T02:44:35.403Z,72.1
2022-08-17T02:45:20.144Z,72.3
2022-08-17T02:46:20.145Z,72.3
2022-08-17T02:47:20.138Z,72.7
2022-08-17T02:48:28.015Z,72.7
2022-08-17T02:49:20.153Z,73
2022-08-17T02:50:20.140Z,74.2
2022-08-17T02:51:20.153Z,74.3
2022-08-17T02:52:43.055Z,74.5
2022-08-17T02:53:20.146Z,74
2022-08-17T02:54:39.993Z,73.7
2022-08-17T02:55:20.138Z,74
2022-08-17T02:56:20.144Z,74.2
2022-08-17T02:57:20.170Z,74.1
2022-08-17T02:58:34.682Z,74.2
2022-08-17T02:59:20.157Z,74.3
2022-08-17T03:00:20.144Z,74.5
2022-08-17T03:01:20.196Z,74.3
2022-08-17T03:02:20.157Z,74.2
2022-08-17T03:03:20.160Z,74.4
2022-08-17T03:04:20.143Z,74.4
2022-08-17T03:05:20.152Z,74.6
2022-08-17T03:06:20.153Z,74.7
2022-08-17T03:07:20.154Z,74.1
2022-08-17T03:08:20.148Z,74.1
2022-08-17T03:09:20.154Z,74.8
2022-08-17T03:10:20.154Z,74.8
2022-08-17T03:11:20.156Z,74.5
2022-08-17T03:12:20.151Z,74.4
2022-08-17T03:13:20.233Z,75
2022-08-17T03:14:20.153Z,74.7
2022-08-17T03:15:20.154Z,74
2022-08-17T03:16:20.158Z,73.8
2022-08-17T03:17:20.155Z,73.5
2022-08-17T03:19:20.160Z,73.5
2022-08-17T03:20:20.156Z,73.7
2022-08-17T03:21:20.163Z,74.2
2022-08-17T03:22:36.457Z,74
2022-08-17T03:23:23.682Z,74
2022-08-17T03:24:20.154Z,74.1
2022-08-17T03:25:20.161Z,74.1
2022-08-17T03:26:20.162Z,74.1
2022-08-17T03:27:20.168Z,74
2022-08-17T03:28:20.163Z,73.9
2022-08-17T03:29:20.161Z,74.2
2022-08-17T03:30:21.174Z,74.1
2022-08-17T03:31:20.163Z,74.3
2022-08-17T03:32:20.169Z,74.7
2022-08-17T03:34:20.168Z,74.9
2022-08-17T03:35:20.169Z,75.5
2022-08-17T03:36:20.175Z,75.3
2022-08-17T03:37:20.170Z,75.4
2022-08-17T03:38:20.170Z,75.3
2022-08-17T03:39:20.169Z,75.1
2022-08-17T03:40:55.607Z,75.2
2022-08-17T03:41:20.174Z,75.2
2022-08-17T03:42:32.435Z,75.1
2022-08-17T03:43:20.174Z,74.5
2022-08-17T03:44:20.181Z,74.6
2022-08-17T03:45:20.171Z,74.4
2022-08-17T03:46:34.372Z,74.8
2022-08-17T03:47:20.172Z,74.7
2022-08-17T03:48:20.175Z,74.9
2022-08-17T03:49:20.180Z,75.5
2022-08-17T03:50:20.173Z,75.5
2022-08-17T03:51:20.183Z,76.1
2022-08-17T03:53:20.177Z,75.6
2022-08-17T03:54:20.179Z,75.5
2022-08-17T03:55:20.177Z,75.1
2022-08-17T03:56:20.178Z,75.4
2022-08-17T03:57:20.178Z,75.5
2022-08-17T03:58:20.185Z,76.1
2022-08-17T03:59:21.207Z,76.5
2022-08-17T04:00:20.176Z,75.8
2022-08-17T04:01:20.240Z,75.9
2022-08-17T04:03:20.184Z,75.8
2022-08-17T04:04:20.186Z,76
2022-08-17T04:05:20.179Z,76
2022-08-17T04:06:20.184Z,75.4
2022-08-17T04:07:20.188Z,75.9
2022-08-17T04:08:20.190Z,77.1
2022-08-17T04:09:20.186Z,76.9
2022-08-17T04:10:23.624Z,77.6
2022-08-17T04:11:20.191Z,78
2022-08-17T04:12:20.185Z,77.6
2022-08-17T04:13:24.753Z,77.2
2022-08-17T04:14:20.197Z,77.3
2022-08-17T04:15:20.191Z,77.1
2022-08-17T04:16:20.191Z,76.8
2022-08-17T04:17:20.196Z,77
2022-08-17T04:18:20.192Z,77
2022-08-17T04:19:20.194Z,77.8
2022-08-17T04:20:20.196Z,77.7
2022-08-17T04:21:20.195Z,77.7
2022-08-17T04:22:30.189Z,77.7
2022-08-17T04:23:20.193Z,77.4
2022-08-17T04:24:20.195Z,77.3
2022-08-17T04:25:20.195Z,77.4
2022-08-17T04:26:52.666Z,77.6
2022-08-17T04:27:20.194Z,77.7
2022-08-17T04:28:20.199Z,77.4
2022-08-17T04:29:20.576Z,77.9
2022-08-17T04:30:20.201Z,77.9
2022-08-17T04:31:20.207Z,77.7
2022-08-17T04:32:58.471Z,77
2022-08-17T04:33:20.223Z,77.6
2022-08-17T04:34:20.198Z,78
2022-08-17T04:35:20.218Z,78.3
2022-08-17T04:36:20.203Z,78.2
2022-08-17T04:37:20.206Z,78.7
2022-08-17T04:38:20.224Z,78.7
2022-08-17T04:39:20.210Z,78.4
2022-08-17T04:40:20.279Z,78.6
2022-08-17T04:41:20.203Z,78.3
2022-08-17T04:42:20.203Z,78.1
2022-08-17T04:43:20.205Z,78.2
2022-08-17T04:45:20.213Z,78.3
2022-08-17T04:46:20.211Z,78.6
2022-08-17T04:47:20.216Z,79
2022-08-17T04:48:20.209Z,79.1
2022-08-17T04:49:20.212Z,78.8
2022-08-17T04:50:20.213Z,78.7
2022-08-17T04:51:20.218Z,78.3
2022-08-17T04:52:32.343Z,77.9
2022-08-17T04:53:20.209Z,78.4
2022-08-17T04:54:20.213Z,78.6
2022-08-17T04:55:20.213Z,78.6
2022-08-17T04:56:20.213Z,78.7
2022-08-17T04:57:20.220Z,78.8
2022-08-17T04:58:20.213Z,78.4
2022-08-17T04:59:20.212Z,78.3
2022-08-17T05:02:20.220Z,78.7
2022-08-17T05:03:20.235Z,78.9
2022-08-17T05:04:33.537Z,79.1
2022-08-17T05:05:20.832Z,78.7
2022-08-17T05:06:20.231Z,78.9
2022-08-17T05:07:23.493Z,78.7
2022-08-17T05:08:20.225Z,79.3
2022-08-17T05:09:20.223Z,79
2022-08-17T05:10:20.235Z,79
2022-08-17T05:11:20.229Z,79.1
2022-08-17T05:12:20.218Z,79
2022-08-17T05:13:20.222Z,79
2022-08-17T05:14:20.230Z,78.9
2022-08-17T05:15:20.221Z,79.1
2022-08-17T05:16:20.231Z,79.3
2022-08-17T05:17:20.227Z,78.8
2022-08-17T05:18:20.229Z,78.9
2022-08-17T05:19:20.223Z,79.1
2022-08-17T05:20:20.225Z,78.8
2022-08-17T05:21:20.237Z,78.5
2022-08-17T05:22:20.227Z,78.7
2022-08-17T05:23:20.227Z,78.6
2022-08-17T05:24:40.722Z,78.4
2022-08-17T05:25:20.227Z,78.3
2022-08-17T05:26:26.432Z,78.1
2022-08-17T05:27:20.232Z,78.1
2022-08-17T05:28:23.480Z,77.8
2022-08-17T05:29:20.235Z,77.8
2022-08-17T05:30:20.230Z,77.5
2022-08-17T05:31:20.237Z,77.9
2022-08-17T05:32:37.921Z,77.8
2022-08-17T05:33:20.231Z,77.5
2022-08-17T05:34:20.236Z,77.8
2022-08-17T05:35:20.243Z,77.5
2022-08-17T05:36:37.844Z,77.1
2022-08-17T05:37:20.238Z,77.6
2022-08-17T05:38:20.231Z,77.3
2022-08-17T05:39:20.242Z,76.9
2022-08-17T05:40:20.247Z,76.9
2022-08-17T05:41:20.243Z,76.7
2022-08-17T05:42:20.237Z,76.6
2022-08-17T05:43:20.245Z,76
2022-08-17T05:44:20.243Z,76.3
2022-08-17T05:45:54.467Z,76.4
2022-08-17T05:46:20.245Z,75.9
2022-08-17T05:47:20.242Z,76.1
2022-08-17T05:48:20.242Z,75.5
2022-08-17T05:49:20.242Z,75.5
2022-08-17T05:50:24.414Z,75.7
2022-08-17T05:51:20.257Z,75.9
2022-08-17T05:52:20.409Z,75.7
2022-08-17T05:53:20.242Z,75.7
2022-08-17T05:54:20.242Z,75.5
2022-08-17T05:55:20.251Z,75.4
2022-08-17T05:56:27.969Z,75.2
2022-08-17T05:57:20.837Z,75.8
2022-08-17T05:58:20.256Z,74.6
2022-08-17T05:59:20.253Z,74.1
2022-08-17T06:00:20.511Z,74.2
2022-08-17T06:01:20.295Z,73.9
2022-08-17T06:02:20.255Z,73.7
2022-08-17T06:03:20.248Z,74.8
2022-08-17T06:04:20.260Z,74
2022-08-17T06:05:20.256Z,73.7
2022-08-17T06:06:20.253Z,73.1
2022-08-17T06:07:20.253Z,73.7
2022-08-17T06:08:20.257Z,73.6
2022-08-17T06:09:26.649Z,73.1
2022-08-17T06:10:20.496Z,72.7
2022-08-17T06:11:20.512Z,73.7
2022-08-17T06:12:20.280Z,72.7
2022-08-17T06:13:20.259Z,72.5
2022-08-17T06:14:20.273Z,73.1
2022-08-17T06:15:20.260Z,71.7
2022-08-17T06:16:33.190Z,72.4
2022-08-17T06:17:20.262Z,71.6
2022-08-17T06:18:20.255Z,70.8
2022-08-17T06:19:20.270Z,70.6
2022-08-17T06:21:20.265Z,69.7
2022-08-17T06:22:20.268Z,68.9
2022-08-17T06:23:20.266Z,68.5
2022-08-17T06:24:20.264Z,68.5
2022-08-17T06:25:20.272Z,69.7
2022-08-17T06:26:20.276Z,68.5
2022-08-17T06:27:20.266Z,68.7
2022-08-17T06:28:20.273Z,68.2
2022-08-17T06:29:20.266Z,68.2
2022-08-17T06:30:20.273Z,68.8
2022-08-17T06:31:20.273Z,68.4
2022-08-17T06:32:20.309Z,67.9
2022-08-17T06:33:20.274Z,68.8
2022-08-17T06:34:20.276Z,67.6
2022-08-17T06:35:20.274Z,68.4
2022-08-17T06:36:20.295Z,67.4
2022-08-17T06:37:20.285Z,67.5
2022-08-17T06:38:37.904Z,67.6
2022-08-17T06:39:20.279Z,66.7
2022-08-17T06:40:20.282Z,67.1
2022-08-17T06:41:20.274Z,66.6
2022-08-17T06:42:54.716Z,66.4
2022-08-17T06:43:20.301Z,66.1
2022-08-17T06:44:50.019Z,66.2
2022-08-17T06:45:20.280Z,65.9
2022-08-17T06:46:20.277Z,66
2022-08-17T06:47:28.010Z,64.9
2022-08-17T06:48:20.279Z,65.9
2022-08-17T06:49:20.278Z,66.5
2022-08-17T06:50:20.288Z,66.6
2022-08-17T06:51:20.290Z,65.8
2022-08-17T06:52:42.129Z,64.6
2022-08-17T06:53:20.285Z,64.2
2022-08-17T06:54:20.286Z,64.2
2022-08-17T06:55:20.298Z,65.4
2022-08-17T06:56:20.286Z,65.2
2022-08-17T06:57:20.293Z,64.4
2022-08-17T06:58:20.296Z,63.7
2022-08-17T06:59:20.280Z,64.1
2022-08-17T07:00:20.290Z,64.6
2022-08-17T07:01:20.340Z,65
2022-08-17T07:02:20.370Z,65.6
2022-08-17T07:03:20.286Z,65.6
2022-08-17T07:04:20.296Z,65.3
2022-08-17T07:05:20.297Z,64.8
2022-08-17T07:06:20.297Z,64.4
2022-08-17T07:08:20.299Z,63.1
2022-08-17T07:09:20.289Z,63.2
2022-08-17T07:10:20.305Z,62.4
2022-08-17T07:11:20.298Z,61.9
2022-08-17T07:12:20.300Z,61.9
2022-08-17T07:13:20.302Z,62.2
2022-08-17T07:14:20.294Z,62.2
2022-08-17T07:15:20.289Z,62.2
2022-08-17T07:16:20.302Z,62.4
2022-08-17T07:17:20.337Z,63.2
2022-08-17T07:18:20.301Z,63.2
2022-08-17T07:19:20.306Z,62.4
2022-08-17T07:20:20.301Z,62.4
2022-08-17T07:21:24.226Z,61.7
2022-08-17T07:22:20.297Z,60.1
2022-08-17T07:23:20.301Z,60.4
2022-08-17T07:24:29.683Z,59.7
2022-08-17T07:25:20.917Z,60.4
2022-08-17T07:26:20.298Z,60.5
2022-08-17T07:27:20.311Z,61.6
2022-08-17T07:28:20.302Z,60.8
2022-08-17T07:29:20.309Z,61
2022-08-17T07:30:20.310Z,60.3
2022-08-17T07:31:20.309Z,59.5
2022-08-17T07:32:20.383Z,59.7
2022-08-17T07:33:20.489Z,59.5
2022-08-17T07:34:20.305Z,59.8
2022-08-17T07:35:20.320Z,60
2022-08-17T07:36:20.320Z,59.5
2022-08-17T07:38:25.147Z,58.1
2022-08-17T07:39:20.312Z,58.7
2022-08-17T07:40:20.424Z,58.4
2022-08-17T07:41:20.316Z,57.7
2022-08-17T07:42:20.319Z,57.3
2022-08-17T07:43:23.158Z,57.9
2022-08-17T07:44:20.317Z,58.3
2022-08-17T07:45:20.318Z,58.3
2022-08-17T07:46:20.362Z,58.1
2022-08-17T07:47:20.321Z,57.2
2022-08-17T07:48:20.323Z,58.3
2022-08-17T07:49:20.327Z,57.9
2022-08-17T07:50:23.961Z,58.2
2022-08-17T07:51:20.704Z,56.5
2022-08-17T07:52:47.493Z,56.5
2022-08-17T07:53:20.325Z,56.5
2022-08-17T07:54:20.328Z,56.8
2022-08-17T07:55:20.336Z,56.7
2022-08-17T07:56:20.334Z,56.8
2022-08-17T07:57:20.327Z,56.1
2022-08-17T07:58:20.333Z,56.2
2022-08-17T07:59:23.056Z,56
2022-08-17T08:00:31.420Z,55.9
2022-08-17T08:01:20.405Z,56.1
2022-08-17T08:02:20.538Z,56.8
2022-08-17T08:04:29.131Z,55.4
2022-08-17T08:05:49.519Z,56.2
2022-08-17T08:06:20.340Z,56.3
2022-08-17T08:07:20.336Z,56.7
2022-08-17T08:08:20.336Z,56.4
2022-08-17T08:09:20.337Z,56
2022-08-17T08:10:20.339Z,55.9
2022-08-17T08:11:20.332Z,56.3
2022-08-17T08:12:20.343Z,55.1
2022-08-17T08:13:20.341Z,56.1
2022-08-17T08:14:20.336Z,54.9
2022-08-17T08:15:20.339Z,55.2
2022-08-17T08:17:20.421Z,55.2
2022-08-17T08:18:53.587Z,54.4
2022-08-17T08:19:21.160Z,55.4
2022-08-17T08:20:51.338Z,53.4
2022-08-17T08:21:20.350Z,53.6
2022-08-17T08:22:20.412Z,53.5
2022-08-17T08:23:20.355Z,53.8
2022-08-17T08:24:20.349Z,54.2
2022-08-17T08:25:20.353Z,53.4
2022-08-17T08:26:20.358Z,53.9
2022-08-17T08:27:20.347Z,53.4
2022-08-17T08:28:20.350Z,53.4
2022-08-17T08:29:20.368Z,53.7
2022-08-17T08:30:20.384Z,55
2022-08-17T08:31:20.349Z,54.3
2022-08-17T08:32:20.436Z,53.3
2022-08-17T08:33:20.362Z,53.5
2022-08-17T08:34:58.867Z,53.5
2022-08-17T08:35:20.348Z,53.4
2022-08-17T08:37:15.958Z,52.9
2022-08-17T08:37:27.640Z,53.8
2022-08-17T08:38:20.360Z,54
2022-08-17T08:39:20.356Z,54.3
2022-08-17T08:40:20.488Z,55.4
2022-08-17T08:41:20.355Z,55.4
2022-08-17T08:42:20.476Z,55.4
2022-08-17T08:43:20.358Z,55.9
2022-08-17T08:44:20.357Z,55.3
2022-08-17T08:45:20.358Z,54.6
2022-08-17T08:46:20.361Z,54.7
2022-08-17T08:47:20.367Z,55.4
2022-08-17T08:48:52.958Z,54.7
2022-08-17T08:49:26.207Z,54.8
2022-08-17T08:50:37.485Z,55.2
2022-08-17T08:51:20.394Z,55
2022-08-17T08:52:20.447Z,53.9
2022-08-17T08:53:20.373Z,54.2
2022-08-17T08:54:26.538Z,53.9
2022-08-17T08:55:20.366Z,53.8
2022-08-17T08:56:20.377Z,54.1
2022-08-17T08:57:25.366Z,54.5
2022-08-17T08:58:32.121Z,53.8
2022-08-17T08:59:20.393Z,53.3
2022-08-17T09:00:20.388Z,54.3
2022-08-17T09:01:20.444Z,54.3
2022-08-17T09:02:20.474Z,53.8
2022-08-17T09:03:20.380Z,53.3
2022-08-17T09:05:20.411Z,53.4
2022-08-17T09:06:28.725Z,53.7
2022-08-17T09:07:20.376Z,53.6
2022-08-17T09:08:20.381Z,53.9
2022-08-17T09:09:20.374Z,53.3
2022-08-17T09:10:20.379Z,52.6
2022-08-17T09:11:20.375Z,52.6
2022-08-17T09:12:20.440Z,52.2
2022-08-17T09:13:20.374Z,53.4
2022-08-17T09:14:21.612Z,53.8
2022-08-17T09:15:20.390Z,53.7
2022-08-17T09:16:20.394Z,54.5
2022-08-17T09:17:20.380Z,54.5
2022-08-17T09:19:02.257Z,54.1
2022-08-17T09:19:20.382Z,54.2
2022-08-17T09:20:27.550Z,54.7
2022-08-17T09:21:20.388Z,53.7
2022-08-17T09:22:20.379Z,54.3
2022-08-17T09:23:20.390Z,54.5
2022-08-17T09:24:20.698Z,54.2
2022-08-17T09:25:20.392Z,54.4
2022-08-17T09:26:20.395Z,54.4
2022-08-17T09:28:20.388Z,55.6
2022-08-17T09:29:20.397Z,55.5
2022-08-17T09:30:20.397Z,55.7
2022-08-17T09:31:20.401Z,55.8
2022-08-17T09:32:20.421Z,56.3
2022-08-17T09:33:20.395Z,56
2022-08-17T09:34:20.414Z,56.3
2022-08-17T09:35:20.389Z,55.3
2022-08-17T09:36:20.401Z,55.3
2022-08-17T09:37:20.400Z,55.4
2022-08-17T09:38:20.402Z,55
2022-08-17T09:39:20.402Z,55.3
2022-08-17T09:40:20.462Z,57.5
2022-08-17T09:41:20.416Z,56.2
2022-08-17T09:42:20.402Z,55
2022-08-17T09:44:23.411Z,54.9
2022-08-17T09:45:20.407Z,55.7
2022-08-17T09:46:20.426Z,56.1
2022-08-17T09:47:20.402Z,56.1
2022-08-17T09:48:20.402Z,55.8
2022-08-17T09:49:25.014Z,55.5
2022-08-17T09:51:03.408Z,55.9
2022-08-17T09:51:20.409Z,55.7
2022-08-17T09:52:20.414Z,55.7
2022-08-17T09:53:20.417Z,56.1
2022-08-17T09:54:38.773Z,54.7
2022-08-17T09:55:20.432Z,55.6
2022-08-17T09:56:20.416Z,55.9
2022-08-17T09:57:31.406Z,56.1
2022-08-17T09:58:21.196Z,56
2022-08-17T09:59:20.415Z,56
2022-08-17T10:00:20.413Z,56.1
2022-08-17T10:01:20.478Z,56.4
2022-08-17T10:02:20.419Z,56.4
2022-08-17T10:03:20.441Z,56.2
2022-08-17T10:04:20.543Z,56.8
2022-08-17T10:05:20.418Z,56
2022-08-17T10:06:22.149Z,55.5
2022-08-17T10:07:20.431Z,55.9
2022-08-17T10:08:21.681Z,56.1
2022-08-17T10:10:20.424Z,56.5
2022-08-17T10:11:20.416Z,57.2
2022-08-17T10:12:20.577Z,56.6
2022-08-17T10:13:20.428Z,56.2
2022-08-17T10:14:36.848Z,56.5
2022-08-17T10:15:20.429Z,55.9
2022-08-17T10:16:20.437Z,56.7
2022-08-17T10:17:20.430Z,56.7
2022-08-17T10:18:20.434Z,56.5
2022-08-17T10:19:20.427Z,56.1
2022-08-17T10:20:20.430Z,56.2
2022-08-17T10:21:20.438Z,56.7
2022-08-17T10:22:35.244Z,56.3
2022-08-17T10:23:20.433Z,56.2
2022-08-17T10:24:20.432Z,56.5
2022-08-17T10:25:21.560Z,55.8
2022-08-17T10:26:20.436Z,55.9
2022-08-17T10:27:20.435Z,56.1
2022-08-17T10:28:20.980Z,56.6
2022-08-17T10:29:20.434Z,56.1
2022-08-17T10:30:20.450Z,56.6
2022-08-17T10:31:36.401Z,56.5
2022-08-17T10:32:20.441Z,56.5
2022-08-17T10:33:20.438Z,56.8
2022-08-17T10:34:20.445Z,57.1
2022-08-17T10:35:20.453Z,57.4
2022-08-17T10:36:20.445Z,57.1
2022-08-17T10:37:20.442Z,57.5
2022-08-17T10:38:21.645Z,57.4
2022-08-17T10:39:20.436Z,57.4
2022-08-17T10:40:20.502Z,57.3
2022-08-17T10:42:32.384Z,57.6
2022-08-17T10:43:20.453Z,57.9
2022-08-17T10:44:39.681Z,58.3
2022-08-17T10:45:20.441Z,58.4
2022-08-17T10:46:30.949Z,58.4
2022-08-17T10:47:20.447Z,58.6
2022-08-17T10:49:20.449Z,58.4
2022-08-17T10:50:20.451Z,59
2022-08-17T10:51:20.457Z,59.2
2022-08-17T10:52:20.444Z,59.1
2022-08-17T10:53:20.452Z,58.9
2022-08-17T10:54:20.459Z,59.4
2022-08-17T10:55:20.504Z,59.4
2022-08-17T10:56:20.503Z,59.9
2022-08-17T10:57:20.459Z,59.6
2022-08-17T10:58:20.457Z,59.7
2022-08-17T10:59:20.460Z,60.2
2022-08-17T11:00:22.949Z,60.5
2022-08-17T11:01:20.532Z,61
2022-08-17T11:02:20.466Z,61.1
2022-08-17T11:03:20.461Z,61.2
2022-08-17T11:04:20.467Z,61.3
2022-08-17T11:05:20.468Z,61.8
2022-08-17T11:06:20.464Z,61.7
2022-08-17T11:07:20.468Z,61.3
2022-08-17T11:08:20.463Z,60.9
2022-08-17T11:09:20.469Z,61.4
2022-08-17T11:10:20.466Z,61.9
2022-08-17T11:11:20.479Z,61.3
2022-08-17T11:12:20.469Z,61
2022-08-17T11:13:20.466Z,61.5
2022-08-17T11:14:20.479Z,61.4
2022-08-17T11:15:20.469Z,61.6
2022-08-17T11:16:20.479Z,61.9
2022-08-17T11:17:20.469Z,61.4
2022-08-17T11:18:20.483Z,61.5
2022-08-17T11:19:20.471Z,61.8
2022-08-17T11:20:20.489Z,62.7
2022-08-17T11:21:20.476Z,62.2
2022-08-17T11:22:20.492Z,62.1
2022-08-17T11:24:20.469Z,62.4
2022-08-17T11:25:20.479Z,62.8
2022-08-17T11:26:20.475Z,62.7
2022-08-17T11:27:20.474Z,63.3
2022-08-17T11:28:20.479Z,63.2
2022-08-17T11:30:20.517Z,63.2
2022-08-17T11:31:20.500Z,62.9
2022-08-17T11:32:20.492Z,63.6
2022-08-17T11:33:20.491Z,63.6
2022-08-17T11:34:20.498Z,63.6
2022-08-17T11:35:20.501Z,63.4
2022-08-17T11:36:20.480Z,63.9
2022-08-17T11:37:20.503Z,63.8
2022-08-17T11:38:20.483Z,64.4
2022-08-17T11:39:20.482Z,64.1
2022-08-17T11:40:20.569Z,64
2022-08-17T11:41:20.485Z,64.5
2022-08-17T11:43:20.502Z,64.5
2022-08-17T11:44:20.523Z,64.5
2022-08-17T11:45:32.443Z,64.4
2022-08-17T11:46:20.497Z,64.5
2022-08-17T11:47:20.527Z,64.4
2022-08-17T11:48:29.043Z,63.7
2022-08-17T11:49:20.494Z,64.4
2022-08-17T11:50:23.486Z,64.5
2022-08-17T11:51:20.489Z,64.1
2022-08-17T11:52:20.488Z,64.7
2022-08-17T11:54:32.841Z,64.1
2022-08-17T11:56:20.507Z,63.7
2022-08-17T11:57:20.501Z,64.2
2022-08-17T11:58:20.523Z,64
2022-08-17T11:59:20.528Z,63.7
2022-08-17T12:00:20.520Z,63.8
2022-08-17T12:01:20.511Z,63.5
2022-08-17T12:02:20.513Z,63.6
2022-08-17T12:03:20.595Z,63.7
2022-08-17T12:04:20.572Z,64.1
2022-08-17T12:05:20.524Z,63.6
2022-08-17T12:06:20.514Z,63
2022-08-17T12:07:20.537Z,63.1
2022-08-17T12:08:20.515Z,63.1
2022-08-17T12:09:20.520Z,63.5
2022-08-17T12:10:20.536Z,64.1
2022-08-17T12:12:11.677Z,64.3
2022-08-17T12:12:20.514Z,63.3
2022-08-17T12:13:20.508Z,62
2022-08-17T12:14:29.412Z,61.9
2022-08-17T12:15:20.525Z,62.1
2022-08-17T12:16:20.528Z,61.8
2022-08-17T12:17:25.893Z,60.4
2022-08-17T12:18:20.532Z,60.7
2022-08-17T12:19:20.544Z,60.7
2022-08-17T12:20:20.520Z,60.7
2022-08-17T12:21:20.513Z,60.3
2022-08-17T12:22:20.512Z,60.1
2022-08-17T12:23:20.532Z,60.3
2022-08-17T12:24:20.549Z,61
2022-08-17T12:25:20.542Z,60.9
2022-08-17T12:26:20.523Z,60.5
2022-08-17T12:27:20.512Z,60.1
2022-08-17T12:28:20.904Z,60.4
2022-08-17T12:29:38.271Z,59.8
2022-08-17T12:30:20.515Z,60
2022-08-17T12:31:20.519Z,59
2022-08-17T12:32:20.542Z,59.2
2022-08-17T12:34:20.520Z,59.5
2022-08-17T12:35:20.526Z,59.3
2022-08-17T12:36:20.545Z,59
2022-08-17T12:37:20.527Z,58.8
2022-08-17T12:38:31.833Z,58.7
2022-08-17T12:39:21.192Z,58.5
2022-08-17T12:40:20.530Z,56.7
2022-08-17T12:41:20.529Z,56.6
2022-08-17T12:42:20.521Z,57.2
2022-08-17T12:43:20.530Z,57
2022-08-17T12:44:20.536Z,57.3
2022-08-17T12:45:20.520Z,57.1
2022-08-17T12:46:20.540Z,58.1
2022-08-17T12:48:20.536Z,57.7
2022-08-17T12:49:20.529Z,57.8
2022-08-17T12:50:29.221Z,57.1
2022-08-17T12:51:20.535Z,57.4
2022-08-17T12:52:20.536Z,57.1
2022-08-17T12:53:20.554Z,57.2
2022-08-17T12:54:20.543Z,57.3
2022-08-17T12:55:20.533Z,57
2022-08-17T12:56:20.531Z,56.1
2022-08-17T12:57:20.532Z,56.9
2022-08-17T12:58:20.606Z,56.3
2022-08-17T12:59:29.793Z,56
2022-08-17T13:00:20.546Z,56.7
2022-08-17T13:01:20.569Z,57.6
2022-08-17T13:02:20.539Z,56.8
2022-08-17T13:03:20.542Z,57.1
2022-08-17T13:04:20.542Z,56.7
2022-08-17T13:05:20.542Z,56.6
2022-08-17T13:06:20.547Z,56.6
2022-08-17T13:07:20.541Z,56.1
2022-08-17T13:08:20.541Z,56.7
2022-08-17T13:09:20.573Z,57.1
2022-08-17T13:10:20.552Z,56.7
2022-08-17T13:11:20.544Z,56.5
2022-08-17T13:12:20.552Z,56.8
2022-08-17T13:13:20.552Z,56.7
2022-08-17T13:14:20.559Z,57.5
2022-08-17T13:15:20.547Z,57.1
2022-08-17T13:16:20.553Z,58.4
2022-08-17T13:17:20.544Z,56.5
2022-08-17T13:18:20.558Z,56.4
2022-08-17T13:19:20.553Z,56.1
2022-08-17T13:20:20.561Z,55.8
2022-08-17T13:21:20.558Z,55.3
2022-08-17T13:22:20.552Z,54.7
2022-08-17T13:23:20.561Z,54.9
2022-08-17T13:25:20.629Z,55.5
2022-08-17T13:26:20.554Z,55.6
2022-08-17T13:27:20.561Z,55.6
2022-08-17T13:28:30.609Z,55.7
2022-08-17T13:29:20.568Z,56.5
2022-08-17T13:30:20.562Z,56.4
2022-08-17T13:31:20.554Z,56.1
2022-08-17T13:32:20.567Z,56.8
2022-08-17T13:33:20.571Z,57.6
2022-08-17T13:34:20.565Z,57.5
2022-08-17T13:36:20.565Z,57.9
2022-08-17T13:37:21.772Z,57.9
2022-08-17T13:38:20.557Z,57.9
2022-08-17T13:39:20.564Z,58
2022-08-17T13:40:20.566Z,58.4
2022-08-17T13:41:20.569Z,58.1
2022-08-17T13:42:22.516Z,58.4
2022-08-17T13:43:20.567Z,56.9
2022-08-17T13:44:20.570Z,57.3
2022-08-17T13:45:35.071Z,57.7
2022-08-17T13:46:20.584Z,56.5
2022-08-17T13:47:20.571Z,56.1
2022-08-17T13:48:20.579Z,55.1
2022-08-17T13:49:20.571Z,55.2
2022-08-17T13:50:20.576Z,55.2
2022-08-17T13:51:20.577Z,54.5
2022-08-17T13:52:20.579Z,55.3
2022-08-17T13:53:20.574Z,55.1
2022-08-17T13:54:20.608Z,55.2
2022-08-17T13:55:20.580Z,55.2